Map

Track Data

SID SEASON NUMBER BASIN SUBBASIN NAME ISO_TIME NATURE LAT LON WMO_WIND WMO_PRES WMO_AGENCY TRACK_TYPE DIST2LAND LANDFALL IFLAG USA_AGENCY USA_ATCF_ID USA_LAT USA_LON USA_RECORD USA_STATUS USA_WIND USA_PRES USA_SSHS USA_R34_NE USA_R34_SE USA_R34_SW USA_R34_NW USA_R50_NE USA_R50_SE USA_R50_SW USA_R50_NW USA_R64_NE USA_R64_SE USA_R64_SW USA_R64_NW USA_POCI USA_ROCI USA_RMW USA_EYE TOKYO_LAT TOKYO_LON TOKYO_GRADE TOKYO_WIND TOKYO_PRES TOKYO_R50_DIR TOKYO_R50_LONG TOKYO_R50_SHORT TOKYO_R30_DIR TOKYO_R30_LONG TOKYO_R30_SHORT TOKYO_LAND CMA_LAT CMA_LON CMA_CAT CMA_WIND CMA_PRES HKO_LAT HKO_LON HKO_CAT HKO_WIND HKO_PRES NEWDELHI_LAT NEWDELHI_LON NEWDELHI_GRADE NEWDELHI_WIND NEWDELHI_PRES NEWDELHI_CI NEWDELHI_DP NEWDELHI_POCI REUNION_LAT REUNION_LON REUNION_TYPE REUNION_WIND REUNION_PRES REUNION_TNUM REUNION_CI REUNION_RMW REUNION_R34_NE REUNION_R34_SE REUNION_R34_SW REUNION_R34_NW REUNION_R50_NE REUNION_R50_SE REUNION_R50_SW REUNION_R50_NW REUNION_R64_NE REUNION_R64_SE REUNION_R64_SW REUNION_R64_NW BOM_LAT BOM_LON BOM_TYPE BOM_WIND BOM_PRES BOM_TNUM BOM_CI BOM_RMW BOM_R34_NE BOM_R34_SE BOM_R34_SW BOM_R34_NW BOM_R50_NE BOM_R50_SE BOM_R50_SW BOM_R50_NW BOM_R64_NE BOM_R64_SE BOM_R64_SW BOM_R64_NW BOM_ROCI BOM_POCI BOM_EYE BOM_POS_METHOD BOM_PRES_METHOD NADI_LAT NADI_LON NADI_CAT NADI_WIND NADI_PRES WELLINGTON_LAT WELLINGTON_LON WELLINGTON_WIND WELLINGTON_PRES DS824_LAT DS824_LON DS824_STAGE DS824_WIND DS824_PRES TD9636_LAT TD9636_LON TD9636_STAGE TD9636_WIND TD9636_PRES TD9635_LAT TD9635_LON TD9635_WIND TD9635_PRES TD9635_ROCI NEUMANN_LAT NEUMANN_LON NEUMANN_CLASS NEUMANN_WIND NEUMANN_PRES MLC_LAT MLC_LON MLC_CLASS MLC_WIND MLC_PRES USA_GUST BOM_GUST BOM_GUST_PER REUNION_GUST REUNION_GUST_PER USA_SEAHGT USA_SEARAD_NE USA_SEARAD_SE USA_SEARAD_SW USA_SEARAD_NW STORM_SPEED STORM_DIR
1904225N20089 1904 26 NI BB NOT_NAMED 1904-08-12 00:00:00 TS 20.1000 89.3000 main 169 156 _________O____ -1 20.1000 89.3000 TC 34 2 302
1904225N20089 1904 26 NI BB NOT_NAMED 1904-08-12 03:00:00 TS 20.1600 89.2000 main 156 145 _________PO___ -1 20.1900 89.1500 TC 36 20.1000 89.3000 2 3 306
1904225N20089 1904 26 NI BB NOT_NAMED 1904-08-12 06:00:00 TS 20.2695 89.0520 main 145 134 _________OP___ -1 20.3000 89.0000 TC 39 20.2237 89.1301 2 4 311
1904225N20089 1904 26 NI BB NOT_NAMED 1904-08-12 09:00:00 TS 20.4019 88.9006 main 134 123 _________PP___ -1 20.4425 88.8500 TC 42 20.3479 88.9680 2 4 314
1904225N20089 1904 26 NI BB NOT_NAMED 1904-08-12 12:00:00 TS 20.5365 88.7610 main 123 101 _________OP___ -1 20.6000 88.7000 TC 45 20.4731 88.8219 2 4 316
1904225N20089 1904 26 NI BB NOT_NAMED 1904-08-12 15:00:00 TS 20.6750 88.6212 main 101 89 _________PO___ -1 20.7500 88.5425 TC 41 20.6000 88.7000 3 4 319
1904225N20089 1904 26 NI BB NOT_NAMED 1904-08-12 18:00:00 TS 20.8151 88.5019 main 89 78 _________OP___ -1 20.9000 88.4000 TC 37 20.7303 88.6039 3 3 326
1904225N20089 1904 26 NI BB NOT_NAMED 1904-08-12 21:00:00 TS 20.9522 88.4195 main 67 55 _________PP___ -1 21.0349 88.3298 TC 33 20.8695 88.5092 3 4 327
1904225N20089 1904 26 NI BB NOT_NAMED 1904-08-13 00:00:00 TS 21.1120 88.2925 main 55 35 _________OP___ -1 21.2000 88.2000 TC 30 21.0239 88.3850 3 5 317
1904225N20089 1904 26 NI BB NOT_NAMED 1904-08-13 03:00:00 TS 21.3213 88.0438 main 39 22 _________PO___ -1 21.4426 87.8877 TC 30 21.2000 88.2000 1 7 309
1904225N20089 1904 26 NI BB NOT_NAMED 1904-08-13 06:00:00 TS 21.5579 87.7116 main 11 0 _________OP___ -1 21.7000 87.5000 TC 30 21.4158 87.9232 1 8 306
1904225N20089 1904 26 NI BB NOT_NAMED 1904-08-13 09:00:00 TS 21.7825 87.3702 main 0 0 _________PP___ -1 21.9149 87.1574 TC 30 21.6502 87.5830 1 8 303
1904225N20089 1904 26 NI BB NOT_NAMED 1904-08-13 12:00:00 TS 21.9922 87.0006 main 0 0 _________OP___ -1 22.1000 86.8000 TC 30 21.8844 87.2013 1 8 299
1904225N20089 1904 26 NI BB NOT_NAMED 1904-08-13 15:00:00 TS 22.1787 86.6037 main 0 0 _________PO___ -1 22.2575 86.4074 TC 30 22.1000 86.8000 1 8 295
1904225N20089 1904 26 NI BB NOT_NAMED 1904-08-13 18:00:00 TS 22.3274 86.2148 main 0 0 _________OP___ -1 22.4000 86.0000 TC 30 22.2549 86.4296 1 8 292
1904225N20089 1904 26 NI BB NOT_NAMED 1904-08-13 21:00:00 TS 22.4633 85.8291 main 0 0 _________PP___ -1 22.5348 85.6147 TC 30 22.3918 86.0435 1 8 291
1904225N20089 1904 26 NI BB NOT_NAMED 1904-08-14 00:00:00 TS 22.6164 85.4179 main 0 0 _________OP___ -1 22.7000 85.2000 TC 30 22.5329 85.6357 1 9 294
1904225N20089 1904 26 NI BB NOT_NAMED 1904-08-14 03:00:00 TS 22.8175 84.9575 main 0 0 _________PO___ -1 22.9350 84.7150 TC 30 22.7000 85.2000 1 10 297
1904225N20089 1904 26 NI BB NOT_NAMED 1904-08-14 06:00:00 TS 23.0607 84.4584 main 0 0 _________OP___ -1 23.2000 84.2000 TC 30 22.9215 84.7169 1 11 298
1904225N20089 1904 26 NI BB NOT_NAMED 1904-08-14 09:00:00 TS 23.3101 83.9501 main 0 0 _________PP___ -1 23.4499 83.6924 TC 30 23.1703 84.2079 1 11 299
1904225N20089 1904 26 NI BB NOT_NAMED 1904-08-14 12:00:00 TS 23.5670 83.4474 main 0 0 _________OP___ -1 23.7000 83.2000 TC 30 23.4340 83.6949 1 10 300
1904225N20089 1904 26 NI BB NOT_NAMED 1904-08-14 15:00:00 TS 23.8249 82.9674 main 0 0 _________PO___ -1 23.9499 82.7348 TC 30 23.7000 83.2000 1 10 301
1904225N20089 1904 26 NI BB NOT_NAMED 1904-08-14 18:00:00 TS 24.0831 82.5045 main 0 0 _________OP___ -1 24.2000 82.3000 TC 30 23.9662 82.7090 1 10 302
1904225N20089 1904 26 NI BB NOT_NAMED 1904-08-14 21:00:00 TS 24.3476 82.0503 main 0 0 _________PP___ -1 24.4651 81.8551 TC 30 24.2302 82.2455 1 9 304
1904225N20089 1904 26 NI BB NOT_NAMED 1904-08-15 00:00:00 TS 24.5895 81.6671 main 0 0 _________OP___ -1 24.7000 81.5000 TC 30 24.4789 81.8341 1 7 307
1904225N20089 1904 26 NI BB NOT_NAMED 1904-08-15 03:00:00 TS 24.7824 81.4061 main 0 0 _________PO___ -1 24.8648 81.3122 TC 30 24.7000 81.5000 1 5 312
1904225N20089 1904 26 NI BB NOT_NAMED 1904-08-15 06:00:00 TS 24.9451 81.2330 main 0 0 _________OP___ -1 25.0000 81.2000 TC 30 24.8902 81.2660 1 4 317
1904225N20089 1904 26 NI BB NOT_NAMED 1904-08-15 09:00:00 TS 25.1046 81.0758 main 0 0 _________PP___ -1 25.1575 81.0425 TC 30 25.0516 81.1090 1 4 319
1904225N20089 1904 26 NI BB NOT_NAMED 1904-08-15 12:00:00 TS 25.2436 80.9488 main 0 0 _________OP___ -1 25.3000 80.9000 TC 30 25.1873 80.9975 1 3 321
1904225N20089 1904 26 NI BB NOT_NAMED 1904-08-15 15:00:00 TS 25.3575 80.8500 main 0 0 _________PO___ -1 25.4150 80.7999 TC 30 25.3000 80.9000 1 3 318
1904225N20089 1904 26 NI BB NOT_NAMED 1904-08-15 18:00:00 TS 25.4388 80.7518 main 0 0 _________OP___ -1 25.5000 80.7000 TC 30 25.3928 80.7907 1 3 306
1904225N20089 1904 26 NI BB NOT_NAMED 1904-08-15 21:00:00 TS 25.5053 80.6258 main 0 0 _________PP___ -1 25.5576 80.5625 TC 30 25.4704 80.6679 1 3 297
1904225N20089 1904 26 NI BB NOT_NAMED 1904-08-16 00:00:00 TS 25.5585 80.4908 main 0 0 _________OP___ -1 25.6000 80.4000 TC 30 25.5378 80.5362 1 2 295
1904225N20089 1904 26 NI BB NOT_NAMED 1904-08-16 03:00:00 NR 25.6000 80.4000 main 0 __________O___ -1 TC 25.6000 80.4000 1 2 298

About IBTrACS Database

This database is a web-friendly format of International Best Track Archive for Climate Stewardship (IBTrACS), a global best track data archive curated by NOAA dating back to 1842.

Updated: 2021-12-03